createdAt,value
2022-11-01T00:00:42.436Z,0
2022-11-01T00:01:43.617Z,0
2022-11-01T00:02:43.945Z,0
2022-11-01T00:03:44.181Z,0
2022-11-01T00:04:45.409Z,0
2022-11-01T00:05:45.923Z,0
2022-11-01T00:06:46.396Z,0
2022-11-01T00:07:46.601Z,0
2022-11-01T00:08:46.193Z,0
2022-11-01T00:09:47.397Z,0
2022-11-01T00:10:48.035Z,0
2022-11-01T00:11:48.746Z,0
2022-11-01T00:12:49.657Z,0
2022-11-01T00:13:49.567Z,0
2022-11-01T00:14:50.493Z,0
2022-11-01T00:15:50.681Z,0
2022-11-01T00:16:51.331Z,0
2022-11-01T00:17:52.837Z,0
2022-11-01T00:18:52.757Z,0
2022-11-01T00:19:54.258Z,0
2022-11-01T00:20:53.930Z,0
2022-11-01T00:21:54.647Z,0
2022-11-01T00:22:55.560Z,0
2022-11-01T00:23:56.471Z,0
2022-11-01T00:25:00.481Z,0
2022-11-01T00:25:58.118Z,0
2022-11-01T00:26:59.817Z,0
2022-11-01T00:27:59.682Z,0
2022-11-01T00:28:59.751Z,0
2022-11-01T00:30:00.646Z,0
2022-11-01T00:31:01.545Z,0
2022-11-01T00:32:02.976Z,0
2022-11-01T00:33:03.172Z,0
2022-11-01T00:34:03.383Z,0
2022-11-01T00:35:03.290Z,0
2022-11-01T00:36:04.604Z,0
2022-11-01T00:37:04.489Z,0
2022-11-01T00:38:05.684Z,0
2022-11-01T00:39:05.589Z,0
2022-11-01T00:40:06.499Z,0
2022-11-01T00:41:07.432Z,0
2022-11-01T00:42:07.859Z,0
2022-11-01T00:43:09.078Z,0
2022-11-01T00:44:10.000Z,0
2022-11-01T00:45:10.619Z,0
2022-11-01T00:46:11.809Z,0
2022-11-01T00:47:11.715Z,0
2022-11-01T00:48:13.245Z,0
2022-11-01T00:49:13.243Z,0
2022-11-01T00:50:14.436Z,0
2022-11-01T00:51:14.958Z,0
2022-11-01T00:52:14.938Z,0
2022-11-01T00:53:15.828Z,0
2022-11-01T00:54:16.724Z,0
2022-11-01T00:55:17.636Z,0
2022-11-01T00:56:18.540Z,0
2022-11-01T00:57:19.452Z,0
2022-11-01T00:58:20.884Z,0
2022-11-01T00:59:21.373Z,0
2022-11-01T01:00:21.027Z,0
2022-11-01T01:01:22.984Z,0
2022-11-01T01:02:23.751Z,0
2022-11-01T01:03:24.272Z,0
2022-11-01T01:04:23.909Z,0
2022-11-01T01:05:24.822Z,0
2022-11-01T01:06:25.782Z,0
2022-11-01T01:07:26.057Z,0
2022-11-01T01:08:25.947Z,0
2022-11-01T01:09:26.858Z,0
2022-11-01T01:10:27.471Z,0
2022-11-01T01:11:28.085Z,0
2022-11-01T01:12:28.512Z,0
2022-11-01T01:13:28.829Z,0
2022-11-01T01:14:32.771Z,0
2022-11-01T01:15:30.408Z,0
2022-11-01T01:16:31.670Z,0
2022-11-01T01:17:36.728Z,0
2022-11-01T01:18:32.947Z,0
2022-11-01T01:19:33.563Z,0
2022-11-01T01:20:34.185Z,0
2022-11-01T01:21:35.169Z,0
2022-11-01T01:22:35.322Z,0
2022-11-01T01:23:36.218Z,0
2022-11-01T01:24:36.838Z,0
2022-11-01T01:25:38.030Z,0
2022-11-01T01:26:38.366Z,0
2022-11-01T01:27:39.583Z,0
2022-11-01T01:28:45.699Z,0
2022-11-01T01:29:40.326Z,0
2022-11-01T01:30:41.828Z,0
2022-11-01T01:31:42.016Z,0
2022-11-01T01:32:43.047Z,0
2022-11-01T01:33:43.718Z,0
2022-11-01T01:34:44.349Z,0
2022-11-01T01:35:45.271Z,0
2022-11-01T01:36:45.493Z,0
2022-11-01T01:37:45.693Z,0
2022-11-01T01:38:46.605Z,0
2022-11-01T01:39:47.219Z,0
2022-11-01T01:40:48.430Z,0
2022-11-01T01:41:48.068Z,0
2022-11-01T01:42:48.206Z,0
2022-11-01T01:43:49.098Z,0
2022-11-01T01:44:49.713Z,0
2022-11-01T01:45:50.905Z,0
2022-11-01T01:46:50.793Z,0
2022-11-01T01:47:51.435Z,0
2022-11-01T01:48:52.635Z,0
2022-11-01T01:49:56.465Z,0
2022-11-01T01:50:53.658Z,0
2022-11-01T01:51:54.188Z,0
2022-11-01T01:52:54.616Z,0
2022-11-01T01:53:54.505Z,0
2022-11-01T01:54:55.398Z,0
2022-11-01T01:55:56.594Z,0
2022-11-01T01:56:56.937Z,0
2022-11-01T01:57:58.118Z,0
2022-11-01T01:58:58.609Z,0
2022-11-01T01:59:58.522Z,0
2022-11-01T02:01:00.019Z,0
2022-11-01T02:02:00.639Z,0
2022-11-01T02:03:00.964Z,0
2022-11-01T02:04:00.779Z,0
2022-11-01T02:05:01.113Z,0
2022-11-01T02:06:02.043Z,0
2022-11-01T02:07:02.564Z,0
2022-11-01T02:08:03.077Z,0
2022-11-01T02:09:03.096Z,0
2022-11-01T02:10:04.005Z,0
2022-11-01T02:11:04.621Z,0
2022-11-01T02:12:06.625Z,0
2022-11-01T02:13:06.656Z,0
2022-11-01T02:14:06.861Z,0
2022-11-01T02:15:08.070Z,0
2022-11-01T02:16:08.260Z,0
2022-11-01T02:17:14.293Z,0
2022-11-01T02:18:10.405Z,0
2022-11-01T02:19:10.345Z,0
2022-11-01T02:20:10.682Z,0
2022-11-01T02:21:11.888Z,0
2022-11-01T02:22:12.412Z,0
2022-11-01T02:23:13.873Z,0
2022-11-01T02:24:14.059Z,0
2022-11-01T02:25:14.251Z,0
2022-11-01T02:26:14.597Z,0
2022-11-01T02:27:15.528Z,0
2022-11-01T02:28:15.718Z,0
2022-11-01T02:29:20.543Z,0
2022-11-01T02:30:16.752Z,0
2022-11-01T02:31:16.795Z,0
2022-11-01T02:32:17.985Z,0
2022-11-01T02:33:18.851Z,0
2022-11-01T02:34:18.790Z,0
2022-11-01T02:35:19.012Z,0
2022-11-01T02:36:20.222Z,0
2022-11-01T02:37:19.897Z,0
2022-11-01T02:38:20.821Z,0
2022-11-01T02:39:22.089Z,0
2022-11-01T02:40:21.993Z,0
2022-11-01T02:41:22.903Z,0
2022-11-01T02:42:23.495Z,0
2022-11-01T02:43:24.216Z,0
2022-11-01T02:44:25.111Z,0
2022-11-01T02:45:26.020Z,0
2022-11-01T02:46:26.954Z,0
2022-11-01T02:47:26.842Z,0
2022-11-01T02:48:27.466Z,0
2022-11-01T02:49:28.368Z,0
2022-11-01T02:50:29.560Z,0
2022-11-01T02:51:29.903Z,0
2022-11-01T02:52:31.143Z,0
2022-11-01T02:53:31.132Z,0
2022-11-01T02:54:32.834Z,0
2022-11-01T02:55:32.526Z,0
2022-11-01T02:56:33.315Z,0
2022-11-01T02:57:34.508Z,0
2022-11-01T02:58:34.995Z,0
2022-11-01T02:59:34.926Z,0
2022-11-01T03:00:35.851Z,0
2022-11-01T03:01:36.490Z,0
2022-11-01T03:02:36.721Z,0
2022-11-01T03:03:37.726Z,0
2022-11-01T03:04:38.646Z,0
2022-11-01T03:05:39.263Z,0
2022-11-01T03:06:40.163Z,0
2022-11-01T03:07:40.834Z,0
2022-11-01T03:08:41.734Z,0
2022-11-01T03:09:43.217Z,0
2022-11-01T03:10:43.413Z,0
2022-11-01T03:11:44.026Z,0
2022-11-01T03:12:46.728Z,0
2022-11-01T03:13:46.047Z,0
2022-11-01T03:14:46.536Z,0
2022-11-01T03:15:46.446Z,0
2022-11-01T03:16:46.779Z,0
2022-11-01T03:17:47.413Z,0
2022-11-01T03:18:48.625Z,0
2022-11-01T03:19:48.264Z,0
2022-11-01T03:20:49.147Z,0
2022-11-01T03:21:50.647Z,0
2022-11-01T03:22:50.880Z,0
2022-11-01T03:23:51.283Z,0
2022-11-01T03:24:51.942Z,0
2022-11-01T03:25:52.864Z,0
2022-11-01T03:26:53.194Z,0
2022-11-01T03:27:54.118Z,0
2022-11-01T03:29:55.926Z,0
2022-11-01T03:30:56.129Z,0
2022-11-01T03:31:57.057Z,0
2022-11-01T03:32:56.944Z,0
2022-11-01T03:33:58.254Z,0
2022-11-01T03:34:58.457Z,0
2022-11-01T03:35:58.795Z,0
2022-11-01T03:37:00.019Z,0
2022-11-01T03:37:59.961Z,0
2022-11-01T03:39:01.137Z,0
2022-11-01T03:40:01.323Z,0
2022-11-01T03:41:01.212Z,0
2022-11-01T03:42:01.846Z,0
2022-11-01T03:43:03.074Z,0
2022-11-01T03:44:04.209Z,0
2022-11-01T03:45:04.101Z,0
2022-11-01T03:46:04.716Z,0
2022-11-01T03:47:05.634Z,0
2022-11-01T03:48:07.091Z,0
2022-11-01T03:49:06.725Z,0
2022-11-01T03:50:07.667Z,0
2022-11-01T03:51:07.861Z,0
2022-11-01T03:52:08.061Z,0
2022-11-01T03:53:08.727Z,0
2022-11-01T03:54:09.050Z,0
2022-11-01T03:55:09.993Z,0
2022-11-01T03:56:11.103Z,0
2022-11-01T03:57:11.095Z,0
2022-11-01T03:58:13.403Z,0
2022-11-01T03:59:13.040Z,0
2022-11-01T04:00:13.968Z,0
2022-11-01T04:01:15.423Z,0
2022-11-01T04:02:15.935Z,0
2022-11-01T04:03:16.335Z,0
2022-11-01T04:04:16.082Z,0
2022-11-01T04:05:17.316Z,0
2022-11-01T04:06:17.790Z,0
2022-11-01T04:07:17.997Z,0
2022-11-01T04:08:19.240Z,0
2022-11-01T04:09:19.129Z,0
2022-11-01T04:10:20.339Z,0
2022-11-01T04:11:20.267Z,0
2022-11-01T04:12:20.882Z,0
2022-11-01T04:13:22.128Z,0
2022-11-01T04:14:23.142Z,0
2022-11-01T04:15:24.061Z,0
2022-11-01T04:16:24.690Z,0
2022-11-01T04:17:25.895Z,0
2022-11-01T04:18:25.570Z,0
2022-11-01T04:19:27.135Z,0
2022-11-01T04:20:27.652Z,0
2022-11-01T04:21:27.881Z,0
2022-11-01T04:22:35.189Z,0
2022-11-01T04:23:29.162Z,0
2022-11-01T04:24:29.860Z,0
2022-11-01T04:25:31.355Z,0
2022-11-01T04:26:31.847Z,0
2022-11-01T04:27:31.483Z,0
2022-11-01T04:28:32.666Z,0
2022-11-01T04:29:32.551Z,0
2022-11-01T04:30:33.759Z,0
2022-11-01T04:31:33.373Z,0
2022-11-01T04:32:33.686Z,0
2022-11-01T04:33:35.172Z,0
2022-11-01T04:34:35.187Z,0
2022-11-01T04:35:36.108Z,0
2022-11-01T04:36:35.708Z,0
2022-11-01T04:37:36.332Z,0
2022-11-01T04:38:37.275Z,0
2022-11-01T04:39:38.168Z,0
2022-11-01T04:40:38.777Z,0
2022-11-01T04:41:39.687Z,0
2022-11-01T04:42:40.323Z,0
2022-11-01T04:43:41.234Z,0
2022-11-01T04:44:41.662Z,0
2022-11-01T04:45:42.573Z,0
2022-11-01T04:46:44.060Z,0
2022-11-01T04:47:43.985Z,0
2022-11-01T04:48:44.314Z,0
2022-11-01T04:49:45.253Z,0
2022-11-01T04:50:46.168Z,0
2022-11-01T04:51:46.016Z,0
2022-11-01T04:52:47.229Z,0
2022-11-01T04:53:46.895Z,0
2022-11-01T04:54:48.275Z,0
2022-11-01T04:55:47.898Z,0
2022-11-01T04:56:49.079Z,0
2022-11-01T04:57:49.271Z,0
2022-11-01T04:58:57.224Z,0
2022-11-01T04:59:50.133Z,0
2022-11-01T05:00:52.003Z,0
2022-11-01T05:01:52.416Z,0
2022-11-01T05:02:52.368Z,0
2022-11-01T05:03:52.257Z,0
2022-11-01T05:04:52.717Z,0
2022-11-01T05:05:53.209Z,0
2022-11-01T05:06:52.841Z,0
2022-11-01T05:07:53.915Z,0
2022-11-01T05:08:54.596Z,0
2022-11-01T05:09:55.489Z,0
2022-11-01T05:10:56.383Z,0
2022-11-01T05:11:57.578Z,0
2022-11-01T05:12:58.060Z,0
2022-11-01T05:13:57.673Z,0
2022-11-01T05:15:02.720Z,0
2022-11-01T05:16:32.125Z,0
2022-11-01T05:17:00.021Z,0
2022-11-01T05:18:00.914Z,0
2022-11-01T05:19:02.121Z,0
2022-11-01T05:20:02.055Z,0
2022-11-01T05:21:03.728Z,0
2022-11-01T05:22:03.623Z,0
2022-11-01T05:23:05.501Z,0
2022-11-01T05:24:04.929Z,0
2022-11-01T05:25:05.700Z,0
2022-11-01T05:26:07.183Z,0
2022-11-01T05:27:07.373Z,0
2022-11-01T05:28:08.413Z,0
2022-11-01T05:30:09.948Z,0
2022-11-01T05:31:09.874Z,0
2022-11-01T05:32:09.209Z,0
2022-11-01T05:33:10.542Z,0
2022-11-01T05:34:11.186Z,0
2022-11-01T05:35:12.783Z,0
2022-11-01T05:36:12.723Z,0
2022-11-01T05:37:13.911Z,0
2022-11-01T05:38:15.449Z,0
2022-11-01T05:39:15.421Z,0
2022-11-01T05:40:16.036Z,0
2022-11-01T05:41:16.653Z,0
2022-11-01T05:42:19.102Z,0
2022-11-01T05:43:18.552Z,0
2022-11-01T05:44:18.487Z,0
2022-11-01T05:45:18.753Z,0
2022-11-01T05:46:18.794Z,0
2022-11-01T05:47:27.880Z,0
2022-11-01T05:48:21.072Z,0
2022-11-01T05:49:21.268Z,0
2022-11-01T05:50:21.917Z,0
2022-11-01T05:51:22.870Z,0
2022-11-01T05:52:23.770Z,0
2022-11-01T05:53:24.701Z,0
2022-11-01T05:54:24.934Z,0
2022-11-01T05:55:25.045Z,0
2022-11-01T05:56:25.956Z,0
2022-11-01T05:57:30.988Z,0
2022-11-01T05:58:33.246Z,0
2022-11-01T05:59:27.280Z,0
2022-11-01T06:00:28.919Z,0
2022-11-01T06:01:29.893Z,0
2022-11-01T06:02:31.202Z,0
2022-11-01T06:03:30.611Z,0
2022-11-01T06:04:31.830Z,0
2022-11-01T06:05:32.180Z,0
2022-11-01T06:06:33.101Z,0
2022-11-01T06:07:33.013Z,0
2022-11-01T06:08:33.614Z,0
2022-11-01T06:09:34.564Z,0
2022-11-01T06:10:34.739Z,0
2022-11-01T06:11:40.655Z,0
2022-11-01T06:12:36.436Z,0
2022-11-01T06:13:37.656Z,0
2022-11-01T06:14:38.131Z,5.63
2022-11-01T06:15:42.607Z,5.63
2022-11-01T06:16:38.809Z,5.63
2022-11-01T06:17:38.441Z,5.63
2022-11-01T06:18:39.354Z,5.63
2022-11-01T06:19:39.544Z,5.63
2022-11-01T06:20:39.450Z,5.63
2022-11-01T06:21:45.831Z,5.63
2022-11-01T06:22:41.324Z,5.63
2022-11-01T06:23:41.827Z,11.25
2022-11-01T06:24:41.766Z,11.25
2022-11-01T06:25:42.758Z,11.25
2022-11-01T06:26:42.952Z,22.5
2022-11-01T06:27:43.263Z,28.13
2022-11-01T06:28:43.930Z,16.88
2022-11-01T06:29:44.849Z,11.25
2022-11-01T06:30:46.040Z,11.25
2022-11-01T06:31:46.954Z,11.25
2022-11-01T06:32:46.866Z,11.25
2022-11-01T06:33:47.521Z,11.25
2022-11-01T06:34:55.706Z,11.25
2022-11-01T06:35:48.729Z,11.25
2022-11-01T06:36:49.643Z,11.25
2022-11-01T06:37:49.678Z,11.25
2022-11-01T06:38:51.182Z,11.25
2022-11-01T06:39:51.404Z,11.25
2022-11-01T06:40:51.290Z,11.25
2022-11-01T06:41:52.777Z,11.25
2022-11-01T06:42:58.101Z,11.25
2022-11-01T06:43:52.716Z,11.25
2022-11-01T06:44:53.337Z,11.25
2022-11-01T06:45:53.468Z,11.25
2022-11-01T06:46:54.381Z,11.25
2022-11-01T06:47:54.981Z,11.25
2022-11-01T06:48:56.173Z,11.25
2022-11-01T06:49:55.788Z,11.25
2022-11-01T06:50:56.720Z,11.25
2022-11-01T06:51:58.212Z,11.25
2022-11-01T06:52:57.567Z,11.25
2022-11-01T06:53:58.777Z,11.25
2022-11-01T06:54:59.001Z,11.25
2022-11-01T06:55:59.295Z,11.25
2022-11-01T06:56:59.789Z,11.25
2022-11-01T06:58:00.304Z,16.88
2022-11-01T06:59:00.398Z,16.88
2022-11-01T07:00:00.611Z,16.88
2022-11-01T07:01:01.197Z,16.88
2022-11-01T07:02:02.617Z,16.88
2022-11-01T07:03:02.189Z,16.88
2022-11-01T07:04:02.619Z,16.88
2022-11-01T07:05:01.703Z,16.88
2022-11-01T07:06:03.065Z,16.88
2022-11-01T07:07:02.972Z,16.88
2022-11-01T07:08:04.143Z,16.88
2022-11-01T07:09:04.625Z,16.88
2022-11-01T07:10:04.605Z,22.5
2022-11-01T07:11:05.079Z,22.5
2022-11-01T07:12:04.404Z,22.5
2022-11-01T07:13:06.021Z,22.5
2022-11-01T07:14:07.209Z,22.5
2022-11-01T07:15:07.855Z,22.5
2022-11-01T07:16:09.154Z,22.5
2022-11-01T07:17:10.359Z,22.5
2022-11-01T07:18:11.563Z,22.5
2022-11-01T07:19:10.477Z,28.13
2022-11-01T07:20:11.674Z,28.13
2022-11-01T07:21:12.319Z,28.13
2022-11-01T07:22:13.526Z,28.13
2022-11-01T07:23:14.060Z,28.13
2022-11-01T07:24:14.562Z,28.13
2022-11-01T07:25:14.513Z,28.13
2022-11-01T07:26:15.793Z,28.13
2022-11-01T07:27:19.397Z,28.13
2022-11-01T07:28:16.805Z,28.13
2022-11-01T07:29:16.722Z,28.13
2022-11-01T07:30:18.212Z,33.75
2022-11-01T07:31:17.543Z,33.75
2022-11-01T07:32:18.756Z,33.75
2022-11-01T07:33:19.487Z,33.75
2022-11-01T07:34:19.123Z,33.75
2022-11-01T07:35:20.315Z,33.75
2022-11-01T07:36:20.779Z,33.75
2022-11-01T07:37:22.133Z,33.75
2022-11-01T07:38:30.083Z,33.75
2022-11-01T07:39:23.352Z,33.75
2022-11-01T07:40:23.571Z,33.75
2022-11-01T07:41:23.477Z,33.75
2022-11-01T07:42:23.812Z,33.75
2022-11-01T07:43:25.009Z,39.38
2022-11-01T07:44:25.629Z,39.38
2022-11-01T07:45:29.112Z,39.38
2022-11-01T07:46:27.406Z,39.38
2022-11-01T07:47:27.615Z,39.38
2022-11-01T07:48:28.110Z,45
2022-11-01T07:49:27.462Z,45
2022-11-01T07:50:28.952Z,45
2022-11-01T07:51:29.153Z,45
2022-11-01T07:52:30.372Z,45
2022-11-01T07:53:30.590Z,45
2022-11-01T07:54:30.515Z,45
2022-11-01T07:55:30.877Z,45
2022-11-01T07:56:30.880Z,45
2022-11-01T07:57:31.488Z,45
2022-11-01T07:58:32.083Z,45
2022-11-01T07:59:33.301Z,45
2022-11-01T08:00:36.811Z,39.38
2022-11-01T08:01:34.575Z,39.38
2022-11-01T08:02:35.529Z,33.75
2022-11-01T08:03:35.180Z,33.75
2022-11-01T08:04:36.414Z,33.75
2022-11-01T08:05:36.031Z,33.75
2022-11-01T08:06:37.618Z,33.75
2022-11-01T08:07:37.250Z,33.75
2022-11-01T08:08:37.589Z,33.75
2022-11-01T08:09:38.786Z,33.75
2022-11-01T08:10:39.021Z,33.75
2022-11-01T08:11:38.903Z,33.75
2022-11-01T08:12:40.109Z,33.75
2022-11-01T08:13:40.002Z,33.75
2022-11-01T08:14:41.201Z,33.75
2022-11-01T08:15:41.817Z,33.75
2022-11-01T08:16:42.264Z,33.75
2022-11-01T08:17:43.156Z,33.75
2022-11-01T08:18:44.653Z,33.75
2022-11-01T08:19:44.568Z,39.38
2022-11-01T08:20:45.483Z,39.38
2022-11-01T08:21:46.695Z,39.38
2022-11-01T08:22:47.137Z,39.38
2022-11-01T08:23:47.650Z,45
2022-11-01T08:24:47.568Z,45
2022-11-01T08:25:47.827Z,45
2022-11-01T08:26:49.105Z,50.63
2022-11-01T08:27:51.204Z,50.63
2022-11-01T08:28:49.102Z,50.63
2022-11-01T08:29:49.147Z,56.25
2022-11-01T08:30:50.357Z,56.25
2022-11-01T08:31:50.280Z,61.88
2022-11-01T08:32:51.477Z,61.88
2022-11-01T08:33:52.397Z,67.5
2022-11-01T08:34:52.618Z,67.5
2022-11-01T08:36:01.549Z,73.13
2022-11-01T08:36:54.150Z,73.13
2022-11-01T08:37:54.369Z,73.13
2022-11-01T08:38:54.891Z,73.13
2022-11-01T08:39:54.813Z,78.75
2022-11-01T08:40:55.776Z,78.75
2022-11-01T08:41:56.978Z,84.38
2022-11-01T08:42:57.922Z,90
2022-11-01T08:43:57.564Z,90
2022-11-01T08:44:58.207Z,95.63
2022-11-01T08:45:59.406Z,101.25
2022-11-01T08:47:00.701Z,106.88
2022-11-01T08:48:00.939Z,106.88
2022-11-01T08:49:00.602Z,106.88
2022-11-01T08:50:01.220Z,112.5
2022-11-01T08:51:02.133Z,118.13
2022-11-01T08:52:03.335Z,123.75
2022-11-01T08:53:03.906Z,118.13
2022-11-01T08:54:03.711Z,118.13
2022-11-01T08:55:04.649Z,118.13
2022-11-01T08:56:04.636Z,118.13
2022-11-01T08:57:05.040Z,118.13
2022-11-01T08:58:06.833Z,118.13
2022-11-01T08:59:07.134Z,118.13
2022-11-01T09:00:07.056Z,123.75
2022-11-01T09:01:08.382Z,129.38
2022-11-01T09:02:09.235Z,135
2022-11-01T09:03:09.271Z,135
2022-11-01T09:04:10.185Z,140.63
2022-11-01T09:05:11.387Z,151.88
2022-11-01T09:06:12.302Z,157.5
2022-11-01T09:07:13.332Z,163.13
2022-11-01T09:08:15.083Z,163.13
2022-11-01T09:09:14.322Z,157.5
2022-11-01T09:10:14.955Z,168.75
2022-11-01T09:11:16.199Z,191.25
2022-11-01T09:12:24.325Z,180
2022-11-01T09:13:19.084Z,163.13
2022-11-01T09:14:17.721Z,168.75
2022-11-01T09:15:18.621Z,180
2022-11-01T09:16:20.168Z,168.75
2022-11-01T09:17:20.010Z,174.38
2022-11-01T09:18:21.224Z,163.13
2022-11-01T09:19:20.892Z,146.25
2022-11-01T09:20:21.789Z,135
2022-11-01T09:21:23.500Z,135
2022-11-01T09:22:23.714Z,123.75
2022-11-01T09:23:24.219Z,123.75
2022-11-01T09:24:24.168Z,129.38
2022-11-01T09:25:24.075Z,129.38
2022-11-01T09:26:25.034Z,118.13
2022-11-01T09:27:25.317Z,112.5
2022-11-01T09:28:28.920Z,118.13
2022-11-01T09:29:27.131Z,112.5
2022-11-01T09:30:27.623Z,112.5
2022-11-01T09:31:36.879Z,112.5
2022-11-01T09:32:29.078Z,112.5
2022-11-01T09:33:29.274Z,106.88
2022-11-01T09:34:30.191Z,106.88
2022-11-01T09:35:29.815Z,106.88
2022-11-01T09:36:30.751Z,101.25
2022-11-01T09:37:31.788Z,101.25
2022-11-01T09:38:31.714Z,101.25
2022-11-01T09:39:32.950Z,101.25
2022-11-01T09:40:33.374Z,101.25
2022-11-01T09:41:33.625Z,101.25
2022-11-01T09:42:33.812Z,101.25
2022-11-01T09:43:33.700Z,101.25
2022-11-01T09:44:34.913Z,95.63
2022-11-01T09:45:34.547Z,101.25
2022-11-01T09:46:35.796Z,101.25
2022-11-01T09:47:36.527Z,101.25
2022-11-01T09:48:37.136Z,95.63
2022-11-01T09:49:37.472Z,95.63
2022-11-01T09:50:38.475Z,95.63
2022-11-01T09:51:39.392Z,90
2022-11-01T09:52:40.035Z,95.63
2022-11-01T09:53:41.529Z,95.63
2022-11-01T09:54:41.457Z,101.25
2022-11-01T09:55:42.681Z,101.25
2022-11-01T09:56:46.848Z,112.5
2022-11-01T09:57:43.243Z,118.13
2022-11-01T09:58:43.730Z,123.75
2022-11-01T09:59:43.944Z,135
2022-11-01T10:00:44.593Z,146.25
2022-11-01T10:01:45.219Z,163.13
2022-11-01T10:02:45.442Z,180
2022-11-01T10:03:46.385Z,180
2022-11-01T10:04:46.582Z,196.88
2022-11-01T10:05:47.086Z,191.25
2022-11-01T10:06:46.985Z,185.63
2022-11-01T10:07:48.293Z,174.38
2022-11-01T10:08:48.503Z,180
2022-11-01T10:09:48.421Z,180
2022-11-01T10:10:52.800Z,174.38
2022-11-01T10:11:50.046Z,168.75
2022-11-01T10:12:50.225Z,174.38
2022-11-01T10:13:50.146Z,168.75
2022-11-01T10:14:51.644Z,174.38
2022-11-01T10:15:51.545Z,191.25
2022-11-01T10:16:51.880Z,174.38
2022-11-01T10:17:57.307Z,202.5
2022-11-01T10:18:54.525Z,230.63
2022-11-01T10:19:54.809Z,202.5
2022-11-01T10:20:54.570Z,174.38
2022-11-01T10:21:56.061Z,157.5
2022-11-01T10:22:56.293Z,135
2022-11-01T10:23:56.540Z,135
2022-11-01T10:24:56.183Z,140.63
2022-11-01T10:25:57.386Z,157.5
2022-11-01T10:26:58.659Z,202.5
2022-11-01T10:27:59.028Z,258.75
2022-11-01T10:29:00.229Z,292.5
2022-11-01T10:29:59.852Z,410.63
2022-11-01T10:31:00.480Z,410.63
2022-11-01T10:32:01.387Z,427.5
2022-11-01T10:33:02.467Z,303.75
2022-11-01T10:34:02.586Z,286.88
2022-11-01T10:35:04.261Z,337.5
2022-11-01T10:36:04.608Z,388.13
2022-11-01T10:37:04.791Z,320.63
2022-11-01T10:39:57.828Z,421.88
2022-11-01T10:40:22.598Z,528.75
2022-11-01T10:41:16.556Z,545.63
2022-11-01T10:42:17.237Z,483.75
2022-11-01T10:43:18.429Z,826.88
2022-11-01T10:44:19.650Z,675
2022-11-01T10:45:19.298Z,613.13
2022-11-01T10:46:19.621Z,343.13
2022-11-01T10:47:20.554Z,326.25
2022-11-01T10:48:21.460Z,793.13
2022-11-01T10:49:24.446Z,663.75
2022-11-01T10:50:24.320Z,393.75
2022-11-01T10:51:27.628Z,736.88
2022-11-01T10:52:24.329Z,348.75
2022-11-01T10:53:24.417Z,466.88
2022-11-01T10:54:24.032Z,956.25
2022-11-01T10:55:24.994Z,421.88
2022-11-01T10:56:29.696Z,365.63
2022-11-01T10:57:26.022Z,303.75
2022-11-01T10:58:25.620Z,320.63
2022-11-01T10:59:26.328Z,225
2022-11-01T11:00:27.527Z,196.88
2022-11-01T11:01:29.196Z,174.38
2022-11-01T11:02:30.329Z,157.5
2022-11-01T11:03:29.320Z,151.88
2022-11-01T11:04:30.600Z,140.63
2022-11-01T11:05:31.829Z,129.38
2022-11-01T11:06:31.771Z,123.75
2022-11-01T11:07:37.901Z,123.75
2022-11-01T11:08:33.170Z,129.38
2022-11-01T11:09:33.457Z,123.75
2022-11-01T11:10:37.982Z,112.5
2022-11-01T11:11:34.517Z,106.88
2022-11-01T11:12:35.009Z,95.63
2022-11-01T11:13:34.899Z,90
2022-11-01T11:14:36.449Z,84.38
2022-11-01T11:15:41.112Z,78.75
2022-11-01T11:16:37.039Z,78.75
2022-11-01T11:17:36.677Z,78.75
2022-11-01T11:18:37.725Z,78.75
2022-11-01T11:19:37.798Z,84.38
2022-11-01T11:20:38.999Z,84.38
2022-11-01T11:21:44.241Z,90
2022-11-01T11:22:39.887Z,90
2022-11-01T11:23:40.848Z,90
2022-11-01T11:24:40.928Z,90
2022-11-01T11:25:41.879Z,90
2022-11-01T11:26:53.150Z,90
2022-11-01T11:27:43.452Z,84.38
2022-11-01T11:28:44.443Z,78.75
2022-11-01T11:29:45.792Z,78.75
2022-11-01T11:30:45.449Z,73.13
2022-11-01T11:31:46.275Z,73.13
2022-11-01T11:32:47.467Z,73.13
2022-11-01T11:33:48.387Z,73.13
2022-11-01T11:34:48.009Z,78.75
2022-11-01T11:35:49.649Z,78.75
2022-11-01T11:36:52.299Z,84.38
2022-11-01T11:37:50.483Z,90
2022-11-01T11:38:50.416Z,90
2022-11-01T11:39:51.418Z,95.63
2022-11-01T11:40:52.657Z,95.63
2022-11-01T11:41:52.887Z,95.63
2022-11-01T11:42:53.838Z,95.63
2022-11-01T11:43:54.314Z,95.63
2022-11-01T11:44:58.951Z,101.25
2022-11-01T11:45:54.572Z,101.25
2022-11-01T11:46:54.895Z,95.63
2022-11-01T11:47:55.514Z,95.63
2022-11-01T11:48:56.432Z,95.63
2022-11-01T11:49:56.431Z,95.63
2022-11-01T11:50:57.624Z,95.63
2022-11-01T11:51:57.820Z,101.25
2022-11-01T11:52:58.737Z,106.88
2022-11-01T11:53:59.972Z,101.25
2022-11-01T11:55:00.164Z,106.88
2022-11-01T11:56:00.817Z,106.88
2022-11-01T11:57:01.446Z,106.88
2022-11-01T11:58:03.012Z,106.88
2022-11-01T11:59:07.477Z,106.88
2022-11-01T12:00:04.139Z,106.88
2022-11-01T12:01:05.051Z,106.88
2022-11-01T12:02:06.891Z,106.88
2022-11-01T12:03:07.265Z,106.88
2022-11-01T12:04:06.368Z,106.88
2022-11-01T12:05:06.993Z,106.88
2022-11-01T12:06:07.911Z,106.88
2022-11-01T12:07:07.824Z,106.88
2022-11-01T12:08:08.716Z,106.88
2022-11-01T12:09:09.967Z,112.5
2022-11-01T12:10:10.430Z,112.5
2022-11-01T12:11:11.642Z,112.5
2022-11-01T12:12:12.869Z,112.5
2022-11-01T12:13:14.030Z,112.5
2022-11-01T12:14:12.343Z,112.5
2022-11-01T12:15:13.844Z,112.5
2022-11-01T12:16:13.830Z,118.13
2022-11-01T12:17:15.077Z,129.38
2022-11-01T12:18:20.797Z,135
2022-11-01T12:19:16.165Z,135
2022-11-01T12:20:15.622Z,123.75
2022-11-01T12:21:16.531Z,112.5
2022-11-01T12:22:17.745Z,106.88
2022-11-01T12:23:18.099Z,101.25
2022-11-01T12:24:18.756Z,95.63
2022-11-01T12:25:19.947Z,95.63
2022-11-01T12:26:27.624Z,95.63
2022-11-01T12:27:22.125Z,95.63
2022-11-01T12:28:22.305Z,101.25
2022-11-01T12:29:22.495Z,118.13
2022-11-01T12:30:22.653Z,157.5
2022-11-01T12:31:26.438Z,146.25
2022-11-01T12:32:24.481Z,140.63
2022-11-01T12:33:25.181Z,151.88
2022-11-01T12:34:25.823Z,157.5
2022-11-01T12:35:26.718Z,191.25
2022-11-01T12:36:27.921Z,168.75
2022-11-01T12:37:28.113Z,151.88
2022-11-01T12:38:27.736Z,163.13
2022-11-01T12:39:29.264Z,157.5
2022-11-01T12:40:29.265Z,163.13
2022-11-01T12:41:29.951Z,146.25
2022-11-01T12:42:30.905Z,140.63
2022-11-01T12:43:32.152Z,151.88
2022-11-01T12:44:32.038Z,174.38
2022-11-01T12:45:32.969Z,163.13
2022-11-01T12:46:33.610Z,180
2022-11-01T12:47:34.528Z,174.38
2022-11-01T12:48:35.456Z,168.75
2022-11-01T12:49:36.082Z,163.13
2022-11-01T12:50:36.768Z,151.88
2022-11-01T12:51:38.260Z,140.63
2022-11-01T12:52:38.465Z,129.38
2022-11-01T12:53:38.678Z,118.13
2022-11-01T12:54:39.640Z,118.13
2022-11-01T12:55:40.134Z,112.5
2022-11-01T12:56:39.791Z,112.5
2022-11-01T12:57:41.000Z,106.88
2022-11-01T12:58:47.011Z,106.88
2022-11-01T12:59:42.295Z,101.25
2022-11-01T13:00:42.996Z,101.25
2022-11-01T13:01:43.883Z,95.63
2022-11-01T13:02:44.119Z,90
2022-11-01T13:03:44.038Z,78.75
2022-11-01T13:04:47.457Z,73.13
2022-11-01T13:05:45.378Z,67.5
2022-11-01T13:06:45.579Z,67.5
2022-11-01T13:07:45.490Z,67.5
2022-11-01T13:08:46.139Z,61.88
2022-11-01T13:09:47.646Z,61.88
2022-11-01T13:10:48.871Z,61.88
2022-11-01T13:11:49.069Z,61.88
2022-11-01T13:12:49.570Z,61.88
2022-11-01T13:13:49.521Z,61.88
2022-11-01T13:14:49.715Z,61.88
2022-11-01T13:15:50.634Z,61.88
2022-11-01T13:16:50.827Z,61.88
2022-11-01T13:17:50.732Z,61.88
2022-11-01T13:18:51.665Z,61.88
2022-11-01T13:19:51.572Z,67.5
2022-11-01T13:20:52.329Z,67.5
2022-11-01T13:21:53.529Z,73.13
2022-11-01T13:22:54.148Z,73.13
2022-11-01T13:23:55.650Z,78.75
2022-11-01T13:24:56.375Z,84.38
2022-11-01T13:25:56.285Z,90
2022-11-01T13:26:57.201Z,78.75
2022-11-01T13:27:57.724Z,73.13
2022-11-01T13:28:57.676Z,73.13
2022-11-01T13:30:03.993Z,67.5
2022-11-01T13:30:59.256Z,73.13
2022-11-01T13:32:00.472Z,67.5
2022-11-01T13:33:00.691Z,61.88
2022-11-01T13:34:01.043Z,50.63
2022-11-01T13:35:00.966Z,50.63
2022-11-01T13:36:02.161Z,50.63
2022-11-01T13:37:02.777Z,50.63
2022-11-01T13:38:04.275Z,50.63
2022-11-01T13:39:03.898Z,50.63
2022-11-01T13:40:05.106Z,56.25
2022-11-01T13:41:05.143Z,56.25
2022-11-01T13:42:06.646Z,56.25
2022-11-01T13:43:07.027Z,56.25
2022-11-01T13:44:06.671Z,50.63
2022-11-01T13:45:08.179Z,45
2022-11-01T13:46:08.681Z,45
2022-11-01T13:47:08.358Z,39.38
2022-11-01T13:48:09.748Z,39.38
2022-11-01T13:49:10.019Z,33.75
2022-11-01T13:50:15.469Z,33.75
2022-11-01T13:51:12.046Z,33.75
2022-11-01T13:52:11.671Z,33.75